createdAt,value
2022-10-26T00:00:12.176Z,4.32
2022-10-26T00:00:44.104Z,4.00
2022-10-26T00:01:16.831Z,4.00
2022-10-26T00:01:49.042Z,4.57
2022-10-26T00:02:21.338Z,4.50
2022-10-26T00:02:56.663Z,4.53
2022-10-26T00:03:28.580Z,4.30
2022-10-26T00:04:00.530Z,3.90
2022-10-26T00:04:32.560Z,4.53
2022-10-26T00:05:05.367Z,4.32
2022-10-26T00:05:37.552Z,3.75
2022-10-26T00:06:20.725Z,3.95
2022-10-26T00:06:52.666Z,3.72
2022-10-26T00:07:24.830Z,3.97
2022-10-26T00:07:56.912Z,4.57
2022-10-26T00:08:29.133Z,3.95
2022-10-26T00:09:01.190Z,4.22
2022-10-26T00:09:33.314Z,5.25
2022-10-26T00:10:05.675Z,4.15
2022-10-26T00:10:39.058Z,4.53
2022-10-26T00:11:12.576Z,4.25
2022-10-26T00:11:44.623Z,4.32
2022-10-26T00:12:16.846Z,4.13
2022-10-26T00:12:51.408Z,4.10
2022-10-26T00:13:23.580Z,3.45
2022-10-26T00:13:55.495Z,4.10
2022-10-26T00:14:27.394Z,3.88
2022-10-26T00:14:59.238Z,4.95
2022-10-26T00:15:31.718Z,4.43
2022-10-26T00:16:19.816Z,3.97
2022-10-26T00:16:51.662Z,4.40
2022-10-26T00:17:23.501Z,4.63
2022-10-26T00:17:55.364Z,4.43
2022-10-26T00:18:27.810Z,4.45
2022-10-26T00:18:59.886Z,4.03
2022-10-26T00:19:35.220Z,4.43
2022-10-26T00:20:07.896Z,4.03
2022-10-26T00:20:40.032Z,3.85
2022-10-26T00:21:12.944Z,3.80
2022-10-26T00:21:44.930Z,4.57
2022-10-26T00:22:16.985Z,4.57
2022-10-26T00:22:48.953Z,5.38
2022-10-26T00:23:20.938Z,4.55
2022-10-26T00:23:52.927Z,3.88
2022-10-26T00:24:24.912Z,4.63
2022-10-26T00:24:57.077Z,4.57
2022-10-26T00:25:29.197Z,4.60
2022-10-26T00:26:01.373Z,3.63
2022-10-26T00:26:33.327Z,3.90
2022-10-26T00:27:05.573Z,4.00
2022-10-26T00:27:37.666Z,3.72
2022-10-26T00:28:09.784Z,3.78
2022-10-26T00:28:41.969Z,3.97
2022-10-26T00:29:14.012Z,3.88
2022-10-26T00:29:45.830Z,4.65
2022-10-26T00:30:18.085Z,4.38
2022-10-26T00:30:50.119Z,3.75
2022-10-26T00:31:22.120Z,3.85
2022-10-26T00:31:54.243Z,4.75
2022-10-26T00:32:26.413Z,3.80
2022-10-26T00:32:58.562Z,4.40
2022-10-26T00:33:31.331Z,4.68
2022-10-26T00:34:03.484Z,5.25
2022-10-26T00:34:35.828Z,5.10
2022-10-26T00:35:21.199Z,4.10
2022-10-26T00:36:00.413Z,3.60
2022-10-26T00:36:32.369Z,4.05
2022-10-26T00:37:04.523Z,4.20
2022-10-26T00:37:36.865Z,3.47
2022-10-26T00:38:09.119Z,4.40
2022-10-26T00:38:46.131Z,4.07
2022-10-26T00:39:18.354Z,4.15
2022-10-26T00:39:50.446Z,3.72
2022-10-26T00:40:22.997Z,3.80
2022-10-26T00:40:55.120Z,4.03
2022-10-26T00:41:31.017Z,3.78
2022-10-26T00:42:03.055Z,3.45
2022-10-26T00:42:35.157Z,3.47
2022-10-26T00:43:16.535Z,4.35
2022-10-26T00:43:49.026Z,3.55
2022-10-26T00:44:48.776Z,3.28
2022-10-26T00:45:25.941Z,3.58
2022-10-26T00:45:59.709Z,3.40
2022-10-26T00:46:36.016Z,3.70
2022-10-26T00:47:13.098Z,3.42
2022-10-26T00:47:53.321Z,3.53
2022-10-26T00:48:28.891Z,3.78
2022-10-26T00:49:15.004Z,3.15
2022-10-26T00:49:49.647Z,3.10
2022-10-26T00:50:28.013Z,3.00
2022-10-26T00:51:03.107Z,3.38
2022-10-26T00:51:44.849Z,3.15
2022-10-26T00:52:18.813Z,2.95
2022-10-26T00:52:52.785Z,3.65
2022-10-26T00:53:25.078Z,2.47
2022-10-26T00:53:57.298Z,2.85
2022-10-26T00:54:29.378Z,3.15
2022-10-26T00:55:01.773Z,3.03
2022-10-26T00:55:38.601Z,3.20
2022-10-26T00:56:11.157Z,3.20
2022-10-26T00:56:43.345Z,3.22
2022-10-26T00:57:17.753Z,3.10
2022-10-26T00:57:52.100Z,3.15
2022-10-26T00:58:26.283Z,3.45
2022-10-26T00:59:03.636Z,3.35
2022-10-26T00:59:35.575Z,3.38
2022-10-26T01:00:08.300Z,2.90
2022-10-26T01:00:42.366Z,3.50
2022-10-26T01:01:14.644Z,3.35
2022-10-26T01:01:48.204Z,3.20
2022-10-26T01:02:20.460Z,2.97
2022-10-26T01:02:55.060Z,3.08
2022-10-26T01:03:28.412Z,3.38
2022-10-26T01:04:01.029Z,3.00
2022-10-26T01:04:34.189Z,2.85
2022-10-26T01:05:06.957Z,2.70
2022-10-26T01:05:42.458Z,2.80
2022-10-26T01:06:15.106Z,3.45
2022-10-26T01:06:47.513Z,2.70
2022-10-26T01:07:19.999Z,2.97
2022-10-26T01:07:52.368Z,2.50
2022-10-26T01:08:26.369Z,2.90
2022-10-26T01:09:02.788Z,2.65
2022-10-26T01:09:36.185Z,3.15
2022-10-26T01:10:09.280Z,3.42
2022-10-26T01:10:42.931Z,2.78
2022-10-26T01:11:15.111Z,2.40
2022-10-26T01:11:47.246Z,3.00
2022-10-26T01:12:19.206Z,2.05
2022-10-26T01:12:52.687Z,2.47
2022-10-26T01:13:28.097Z,2.88
2022-10-26T01:14:03.653Z,2.60
2022-10-26T01:14:35.802Z,2.33
2022-10-26T01:15:08.497Z,2.72
2022-10-26T01:15:52.363Z,2.60
2022-10-26T01:16:50.697Z,2.42
2022-10-26T01:17:47.063Z,2.33
2022-10-26T01:18:51.053Z,2.70
2022-10-26T01:19:45.673Z,2.58
2022-10-26T01:20:43.452Z,2.83
2022-10-26T01:21:42.895Z,2.80
2022-10-26T01:22:21.677Z,2.70
2022-10-26T01:23:05.881Z,2.75
2022-10-26T01:23:43.474Z,3.08
2022-10-26T01:24:41.130Z,2.83
2022-10-26T01:25:51.503Z,2.72
2022-10-26T01:26:38.309Z,2.80
2022-10-26T01:27:36.284Z,2.78
2022-10-26T01:28:35.408Z,3.20
2022-10-26T01:29:26.842Z,3.10
2022-10-26T01:30:29.636Z,2.70
2022-10-26T01:31:05.321Z,2.92
2022-10-26T01:32:12.576Z,2.40
2022-10-26T01:32:59.641Z,2.97
2022-10-26T01:33:39.443Z,2.58
2022-10-26T01:34:23.895Z,3.50
2022-10-26T01:35:11.556Z,2.50
2022-10-26T01:35:51.954Z,2.58
2022-10-26T01:36:34.228Z,2.92
2022-10-26T01:37:12.798Z,2.65
2022-10-26T01:38:04.882Z,3.22
2022-10-26T01:38:52.380Z,2.78
2022-10-26T01:39:39.751Z,2.63
2022-10-26T01:40:21.846Z,2.80
2022-10-26T01:41:17.570Z,2.80
2022-10-26T01:41:51.612Z,2.30
2022-10-26T01:42:23.995Z,2.65
2022-10-26T01:42:59.195Z,2.90
2022-10-26T01:43:36.701Z,2.50
2022-10-26T01:44:24.270Z,2.72
2022-10-26T01:45:01.406Z,2.50
2022-10-26T01:45:34.783Z,2.78
2022-10-26T01:46:09.976Z,2.47
2022-10-26T01:46:46.187Z,2.63
2022-10-26T01:47:20.949Z,2.97
2022-10-26T01:47:55.070Z,3.30
2022-10-26T01:48:30.087Z,3.25
2022-10-26T01:49:08.170Z,2.63
2022-10-26T01:49:46.927Z,2.78
2022-10-26T01:50:20.829Z,3.63
2022-10-26T01:50:54.938Z,2.97
2022-10-26T01:51:28.878Z,2.85
2022-10-26T01:52:00.891Z,2.63
2022-10-26T01:52:33.721Z,2.72
2022-10-26T01:53:05.869Z,2.90
2022-10-26T01:53:44.755Z,3.17
2022-10-26T01:54:19.161Z,2.75
2022-10-26T01:54:51.288Z,2.55
2022-10-26T01:55:48.717Z,2.88
2022-10-26T01:56:30.844Z,2.83
2022-10-26T01:57:05.713Z,2.92
2022-10-26T01:57:38.537Z,2.53
2022-10-26T01:58:32.155Z,2.33
2022-10-26T01:59:22.444Z,3.08
2022-10-26T02:00:03.300Z,2.85
2022-10-26T02:00:41.059Z,2.78
2022-10-26T02:01:56.725Z,2.50
2022-10-26T02:03:02.087Z,2.33
2022-10-26T02:03:42.373Z,2.78
2022-10-26T02:04:19.882Z,2.60
2022-10-26T02:05:25.595Z,2.78
2022-10-26T02:06:53.130Z,2.22
2022-10-26T02:07:40.237Z,2.67
2022-10-26T02:08:30.102Z,2.58
2022-10-26T02:09:23.595Z,2.63
2022-10-26T02:10:13.672Z,2.58
2022-10-26T02:10:45.430Z,2.67
2022-10-26T02:11:36.112Z,2.90
2022-10-26T02:12:26.430Z,3.10
2022-10-26T02:13:27.827Z,2.80
2022-10-26T02:15:12.791Z,2.63
2022-10-26T02:16:10.713Z,2.55
2022-10-26T02:16:58.259Z,2.33
2022-10-26T02:17:40.739Z,2.47
2022-10-26T02:18:22.562Z,2.88
2022-10-26T02:19:12.957Z,2.67
2022-10-26T02:19:52.038Z,2.80
2022-10-26T02:21:04.213Z,2.72
2022-10-26T02:21:42.062Z,3.28
2022-10-26T02:22:25.482Z,2.83
2022-10-26T02:23:00.641Z,2.55
2022-10-26T02:23:37.461Z,3.05
2022-10-26T02:24:13.914Z,3.10
2022-10-26T02:24:47.979Z,2.35
2022-10-26T02:25:28.748Z,2.90
2022-10-26T02:26:38.343Z,2.95
2022-10-26T02:27:16.759Z,3.00
2022-10-26T02:27:53.708Z,2.63
2022-10-26T02:28:31.207Z,2.75
2022-10-26T02:29:07.089Z,2.70
2022-10-26T02:29:41.188Z,2.75
2022-10-26T02:30:13.669Z,2.60
2022-10-26T02:30:48.716Z,2.83
2022-10-26T02:31:21.112Z,2.85
2022-10-26T02:31:54.044Z,2.22
2022-10-26T02:32:31.571Z,3.08
2022-10-26T02:33:07.876Z,2.58
2022-10-26T02:33:44.470Z,2.72
2022-10-26T02:34:21.571Z,2.83
2022-10-26T02:34:57.870Z,2.97
2022-10-26T02:35:32.932Z,2.90
2022-10-26T02:36:08.425Z,2.92
2022-10-26T02:36:45.604Z,2.55
2022-10-26T02:37:34.500Z,3.00
2022-10-26T02:38:11.261Z,2.72
2022-10-26T02:38:46.286Z,2.75
2022-10-26T02:39:20.954Z,2.67
2022-10-26T02:39:54.605Z,2.95
2022-10-26T02:40:29.813Z,3.08
2022-10-26T02:41:04.132Z,2.53
2022-10-26T02:41:42.101Z,3.10
2022-10-26T02:42:15.828Z,2.30
2022-10-26T02:42:50.167Z,2.72
2022-10-26T02:43:25.015Z,2.95
2022-10-26T02:44:08.136Z,3.10
2022-10-26T02:44:49.105Z,2.85
2022-10-26T02:45:30.659Z,2.60
2022-10-26T02:46:08.003Z,2.58
2022-10-26T02:46:40.201Z,2.60
2022-10-26T02:47:13.319Z,2.55
2022-10-26T02:47:45.395Z,2.95
2022-10-26T02:48:17.920Z,2.85
2022-10-26T02:48:50.037Z,2.75
2022-10-26T02:49:22.614Z,2.30
2022-10-26T02:49:55.388Z,2.70
2022-10-26T02:50:37.293Z,2.90
2022-10-26T02:51:20.403Z,2.30
2022-10-26T02:52:04.767Z,2.47
2022-10-26T02:52:58.739Z,2.35
2022-10-26T02:53:38.910Z,2.97
2022-10-26T02:54:18.892Z,2.92
2022-10-26T02:54:54.299Z,2.80
2022-10-26T02:55:33.044Z,1.90
2022-10-26T02:56:13.915Z,2.42
2022-10-26T02:56:45.853Z,3.03
2022-10-26T02:57:24.700Z,2.65
2022-10-26T02:58:06.127Z,2.60
2022-10-26T02:58:43.756Z,2.60
2022-10-26T02:59:17.139Z,2.30
2022-10-26T02:59:50.008Z,2.40
2022-10-26T03:00:22.399Z,2.65
2022-10-26T03:00:58.151Z,2.55
2022-10-26T03:01:32.808Z,2.30
2022-10-26T03:02:05.756Z,2.17
2022-10-26T03:02:37.909Z,2.63
2022-10-26T03:03:10.186Z,2.78
2022-10-26T03:03:45.209Z,2.40
2022-10-26T03:04:19.787Z,2.38
2022-10-26T03:04:52.753Z,2.75
2022-10-26T03:05:27.728Z,2.38
2022-10-26T03:06:00.038Z,2.20
2022-10-26T03:06:33.736Z,1.90
2022-10-26T03:07:06.061Z,2.42
2022-10-26T03:07:40.561Z,2.42
2022-10-26T03:08:14.942Z,2.08
2022-10-26T03:08:50.989Z,2.40
2022-10-26T03:09:25.552Z,2.15
2022-10-26T03:09:59.400Z,2.25
2022-10-26T03:10:41.288Z,2.28
2022-10-26T03:11:15.627Z,2.35
2022-10-26T03:11:47.778Z,2.58
2022-10-26T03:12:28.595Z,3.00
2022-10-26T03:13:04.148Z,2.53
2022-10-26T03:13:38.711Z,2.70
2022-10-26T03:14:11.269Z,2.08
2022-10-26T03:14:43.949Z,2.35
2022-10-26T03:15:16.271Z,2.40
2022-10-26T03:15:48.788Z,2.58
2022-10-26T03:16:23.502Z,2.05
2022-10-26T03:16:55.911Z,2.38
2022-10-26T03:17:27.997Z,2.20
2022-10-26T03:18:00.574Z,2.60
2022-10-26T03:18:32.746Z,2.25
2022-10-26T03:19:05.771Z,2.65
2022-10-26T03:19:40.551Z,2.60
2022-10-26T03:20:15.226Z,2.40
2022-10-26T03:20:47.490Z,2.80
2022-10-26T03:21:19.651Z,2.38
2022-10-26T03:21:52.324Z,2.47
2022-10-26T03:22:24.806Z,2.00
2022-10-26T03:22:57.307Z,2.10
2022-10-26T03:23:29.547Z,2.50
2022-10-26T03:24:01.757Z,3.10
2022-10-26T03:24:36.449Z,2.45
2022-10-26T03:25:43.466Z,2.75
2022-10-26T03:26:15.859Z,2.60
2022-10-26T03:26:50.243Z,2.83
2022-10-26T03:27:24.326Z,2.70
2022-10-26T03:28:01.185Z,2.28
2022-10-26T03:28:33.346Z,2.55
2022-10-26T03:29:05.817Z,2.40
2022-10-26T03:29:37.912Z,2.20
2022-10-26T03:30:10.355Z,2.20
2022-10-26T03:30:42.496Z,2.10
2022-10-26T03:31:14.680Z,2.70
2022-10-26T03:31:46.791Z,2.70
2022-10-26T03:32:19.014Z,3.20
2022-10-26T03:32:51.175Z,2.75
2022-10-26T03:33:25.678Z,2.72
2022-10-26T03:34:01.783Z,2.17
2022-10-26T03:34:35.410Z,2.47
2022-10-26T03:35:07.772Z,2.35
2022-10-26T03:35:40.086Z,2.70
2022-10-26T03:36:12.395Z,2.45
2022-10-26T03:36:44.466Z,2.60
2022-10-26T03:37:18.217Z,2.33
2022-10-26T03:37:51.641Z,2.75
2022-10-26T03:38:24.580Z,2.78
2022-10-26T03:39:01.957Z,3.03
2022-10-26T03:39:33.958Z,2.40
2022-10-26T03:40:09.479Z,2.70
2022-10-26T03:40:41.820Z,2.70
2022-10-26T03:41:13.990Z,2.30
2022-10-26T03:41:49.115Z,2.70
2022-10-26T03:42:23.652Z,2.60
2022-10-26T03:42:55.871Z,2.28
2022-10-26T03:43:30.365Z,2.45
2022-10-26T03:44:02.441Z,2.90
2022-10-26T03:44:34.446Z,2.58
2022-10-26T03:45:07.539Z,2.65
2022-10-26T03:45:41.983Z,2.30
2022-10-26T03:46:14.234Z,2.55
2022-10-26T03:46:46.329Z,3.00
2022-10-26T03:47:18.280Z,2.50
2022-10-26T03:47:51.096Z,2.42
2022-10-26T03:48:23.274Z,2.20
2022-10-26T03:48:55.571Z,2.83
2022-10-26T03:49:27.609Z,2.88
2022-10-26T03:50:00.653Z,2.67
2022-10-26T03:50:32.770Z,2.33
2022-10-26T03:51:04.977Z,2.38
2022-10-26T03:51:37.197Z,2.70
2022-10-26T03:52:09.245Z,2.80
2022-10-26T03:52:41.240Z,2.15
2022-10-26T03:53:13.309Z,2.58
2022-10-26T03:53:45.604Z,3.05
2022-10-26T03:54:20.601Z,3.10
2022-10-26T03:54:53.084Z,2.63
2022-10-26T03:55:25.252Z,2.80
2022-10-26T03:55:57.334Z,2.78
2022-10-26T03:56:29.451Z,2.20
2022-10-26T03:57:02.787Z,2.97
2022-10-26T03:57:37.497Z,2.53
2022-10-26T03:58:09.561Z,2.42
2022-10-26T03:58:41.812Z,2.65
2022-10-26T03:59:14.024Z,2.58
2022-10-26T03:59:46.734Z,2.75
2022-10-26T04:00:19.391Z,2.67
2022-10-26T04:00:51.778Z,2.97
2022-10-26T04:01:23.979Z,2.35
2022-10-26T04:01:57.894Z,2.70
2022-10-26T04:02:30.284Z,2.40
2022-10-26T04:03:02.293Z,2.72
2022-10-26T04:03:34.307Z,2.47
2022-10-26T04:04:06.602Z,2.28
2022-10-26T04:04:38.763Z,2.33
2022-10-26T04:05:11.437Z,2.70
2022-10-26T04:05:43.564Z,3.10
2022-10-26T04:06:17.797Z,3.03
2022-10-26T04:06:49.832Z,2.17
2022-10-26T04:07:21.869Z,2.53
2022-10-26T04:07:58.704Z,3.17
2022-10-26T04:08:32.046Z,2.83
2022-10-26T04:09:04.167Z,2.53
2022-10-26T04:09:36.147Z,2.58
2022-10-26T04:10:09.230Z,2.72
2022-10-26T04:10:41.476Z,2.67
2022-10-26T04:11:13.496Z,2.85
2022-10-26T04:11:45.539Z,2.78
2022-10-26T04:12:17.804Z,2.45
2022-10-26T04:12:50.025Z,2.90
2022-10-26T04:13:22.132Z,2.60
2022-10-26T04:13:55.377Z,2.60
2022-10-26T04:14:29.670Z,2.95
2022-10-26T04:15:33.792Z,2.63
2022-10-26T04:16:06.067Z,2.10
2022-10-26T04:16:40.395Z,2.80
2022-10-26T04:17:12.320Z,2.90
2022-10-26T04:17:44.378Z,2.78
2022-10-26T04:18:16.832Z,2.28
2022-10-26T04:18:48.863Z,2.78
2022-10-26T04:19:21.188Z,2.35
2022-10-26T04:19:53.271Z,2.95
2022-10-26T04:20:27.034Z,2.60
2022-10-26T04:21:02.448Z,3.00
2022-10-26T04:21:35.468Z,2.47
2022-10-26T04:22:07.671Z,2.47
2022-10-26T04:22:39.651Z,2.03
2022-10-26T04:23:14.658Z,2.40
2022-10-26T04:23:47.050Z,3.55
2022-10-26T04:24:19.030Z,2.80
2022-10-26T04:24:51.384Z,2.72
2022-10-26T04:25:23.338Z,2.65
2022-10-26T04:25:55.568Z,2.83
2022-10-26T04:26:30.216Z,2.90
2022-10-26T04:27:02.310Z,2.78
2022-10-26T04:27:35.458Z,2.72
2022-10-26T04:28:08.978Z,2.78
2022-10-26T04:28:40.992Z,2.92
2022-10-26T04:29:13.868Z,2.92
2022-10-26T04:29:45.712Z,2.90
2022-10-26T04:30:17.842Z,2.60
2022-10-26T04:30:49.888Z,2.72
2022-10-26T04:31:21.867Z,2.90
2022-10-26T04:31:54.061Z,2.45
2022-10-26T04:32:26.012Z,2.53
2022-10-26T04:32:58.324Z,2.25
2022-10-26T04:33:30.347Z,2.40
2022-10-26T04:34:02.566Z,3.00
2022-10-26T04:34:34.706Z,2.78
2022-10-26T04:35:07.042Z,2.80
2022-10-26T04:35:39.194Z,3.03
2022-10-26T04:36:11.198Z,3.20
2022-10-26T04:36:43.276Z,3.28
2022-10-26T04:37:15.267Z,3.25
2022-10-26T04:37:49.688Z,2.80
2022-10-26T04:38:24.685Z,2.42
2022-10-26T04:38:56.808Z,3.00
2022-10-26T04:39:28.775Z,3.42
2022-10-26T04:40:02.314Z,3.03
2022-10-26T04:40:35.241Z,2.92
2022-10-26T04:41:07.259Z,3.78
2022-10-26T04:41:39.354Z,2.92
2022-10-26T04:42:11.754Z,2.17
2022-10-26T04:42:47.863Z,3.25
2022-10-26T04:43:20.345Z,2.90
2022-10-26T04:43:55.477Z,2.63
2022-10-26T04:44:27.489Z,2.72
2022-10-26T04:45:01.983Z,3.25
2022-10-26T04:45:34.545Z,3.03
2022-10-26T04:46:06.585Z,3.35
2022-10-26T04:46:38.671Z,3.28
2022-10-26T04:47:10.709Z,2.55
2022-10-26T04:47:43.049Z,2.97
2022-10-26T04:48:15.074Z,2.97
2022-10-26T04:48:48.790Z,2.85
2022-10-26T04:49:20.712Z,2.80
2022-10-26T04:49:52.762Z,3.55
2022-10-26T04:50:27.540Z,2.97
2022-10-26T04:51:01.316Z,2.85
2022-10-26T04:51:33.409Z,3.15
2022-10-26T04:52:06.324Z,2.88
2022-10-26T04:52:38.698Z,3.15
2022-10-26T04:53:11.962Z,2.92
2022-10-26T04:53:43.913Z,3.05
2022-10-26T04:54:15.990Z,3.30
2022-10-26T04:54:47.940Z,2.85
2022-10-26T04:55:19.904Z,3.10
2022-10-26T04:55:57.457Z,2.92
2022-10-26T04:56:29.967Z,3.33
2022-10-26T04:57:01.937Z,3.80
2022-10-26T04:57:35.063Z,3.15
2022-10-26T04:58:07.323Z,3.28
2022-10-26T04:58:39.247Z,2.95
2022-10-26T04:59:11.395Z,3.50
2022-10-26T04:59:43.728Z,3.58
2022-10-26T05:00:15.953Z,2.90
2022-10-26T05:00:47.977Z,2.88
2022-10-26T05:01:19.979Z,3.00
2022-10-26T05:01:52.221Z,3.00
2022-10-26T05:02:24.417Z,3.03
2022-10-26T05:03:01.040Z,3.67
2022-10-26T05:03:33.093Z,4.07
2022-10-26T05:04:05.138Z,3.30
2022-10-26T05:04:37.130Z,2.72
2022-10-26T05:05:14.940Z,3.10
2022-10-26T05:05:49.918Z,2.72
2022-10-26T05:06:21.969Z,3.80
2022-10-26T05:06:54.048Z,3.35
2022-10-26T05:07:26.074Z,3.53
2022-10-26T05:07:58.287Z,3.35
2022-10-26T05:08:30.471Z,2.95
2022-10-26T05:09:02.877Z,3.17
2022-10-26T05:09:38.221Z,3.50
2022-10-26T05:10:12.453Z,3.22
2022-10-26T05:10:49.417Z,3.30
2022-10-26T05:11:21.453Z,3.25
2022-10-26T05:11:53.514Z,3.53
2022-10-26T05:12:25.498Z,3.15
2022-10-26T05:13:00.824Z,3.45
2022-10-26T05:13:38.602Z,3.38
2022-10-26T05:14:10.525Z,3.95
2022-10-26T05:14:42.549Z,3.72
2022-10-26T05:15:15.262Z,3.40
2022-10-26T05:15:47.287Z,3.50
2022-10-26T05:16:19.397Z,3.55
2022-10-26T05:16:51.842Z,3.35
2022-10-26T05:17:23.831Z,3.05
2022-10-26T05:17:58.028Z,3.40
2022-10-26T05:18:30.012Z,3.45
2022-10-26T05:19:02.044Z,3.42
2022-10-26T05:19:34.068Z,3.40
2022-10-26T05:20:10.364Z,3.17
2022-10-26T05:20:42.340Z,3.50
2022-10-26T05:21:19.372Z,3.25
2022-10-26T05:21:53.508Z,3.08
2022-10-26T05:22:25.976Z,3.80
2022-10-26T05:22:59.603Z,3.35
2022-10-26T05:23:31.582Z,2.88
2022-10-26T05:24:04.569Z,2.80
2022-10-26T05:24:40.324Z,3.40
2022-10-26T05:25:12.366Z,3.80
2022-10-26T05:25:45.153Z,3.10
2022-10-26T05:26:17.352Z,3.50
2022-10-26T05:26:49.257Z,3.58
2022-10-26T05:27:21.516Z,3.45
2022-10-26T05:28:01.435Z,2.80
2022-10-26T05:28:35.596Z,3.17
2022-10-26T05:29:08.147Z,3.15
2022-10-26T05:29:40.167Z,3.05
2022-10-26T05:30:12.870Z,3.58
2022-10-26T05:30:46.258Z,3.47
2022-10-26T05:31:18.270Z,3.42
2022-10-26T05:31:50.242Z,2.60
2022-10-26T05:32:22.170Z,3.72
2022-10-26T05:32:58.652Z,3.55
2022-10-26T05:33:30.682Z,3.25
2022-10-26T05:34:02.868Z,3.70
2022-10-26T05:34:38.195Z,3.83
2022-10-26T05:35:12.774Z,3.70
2022-10-26T05:35:44.858Z,3.80
2022-10-26T05:36:18.683Z,3.50
2022-10-26T05:36:53.571Z,3.33
2022-10-26T05:37:28.969Z,3.53
2022-10-26T05:38:07.722Z,3.70
2022-10-26T05:38:39.753Z,4.40
2022-10-26T05:39:11.913Z,3.30
2022-10-26T05:39:44.218Z,4.32
2022-10-26T05:40:17.646Z,3.83
2022-10-26T05:40:54.272Z,3.72
2022-10-26T05:41:26.703Z,3.55
2022-10-26T05:41:58.786Z,3.40
2022-10-26T05:42:30.911Z,3.97
2022-10-26T05:43:03.214Z,3.08
2022-10-26T05:43:35.380Z,3.70
2022-10-26T05:44:07.474Z,3.10
2022-10-26T05:44:39.461Z,4.28
2022-10-26T05:45:13.896Z,4.47
2022-10-26T05:45:46.151Z,3.53
2022-10-26T05:46:18.292Z,4.13
2022-10-26T05:47:22.424Z,4.75
2022-10-26T05:47:58.574Z,3.58
2022-10-26T05:48:33.775Z,3.78
2022-10-26T05:49:05.846Z,3.97
2022-10-26T05:49:37.865Z,3.50
2022-10-26T05:50:11.277Z,4.20
2022-10-26T05:50:43.298Z,3.78
2022-10-26T05:51:16.074Z,4.15
2022-10-26T05:51:48.065Z,3.95
2022-10-26T05:52:20.240Z,4.18
2022-10-26T05:52:52.279Z,3.45
2022-10-26T05:53:24.494Z,3.65
2022-10-26T05:53:56.815Z,3.75
2022-10-26T05:54:28.702Z,4.47
2022-10-26T05:55:00.797Z,3.38
2022-10-26T05:55:33.391Z,3.88
2022-10-26T05:56:33.806Z,3.47
2022-10-26T05:57:06.153Z,4.47
2022-10-26T05:57:38.582Z,3.60
2022-10-26T05:58:12.930Z,3.95
2022-10-26T05:58:45.880Z,3.53
2022-10-26T05:59:18.162Z,3.25
2022-10-26T05:59:50.426Z,4.00
2022-10-26T06:00:25.239Z,3.60
2022-10-26T06:00:59.785Z,3.08
2022-10-26T06:02:19.143Z,3.22
2022-10-26T06:02:53.976Z,3.65
2022-10-26T06:03:37.754Z,3.35
2022-10-26T06:04:28.715Z,3.88
2022-10-26T06:05:04.638Z,3.67
2022-10-26T06:05:51.077Z,3.63
2022-10-26T06:06:23.227Z,3.60
2022-10-26T06:06:56.406Z,3.50
2022-10-26T06:07:28.503Z,3.38
2022-10-26T06:08:00.590Z,3.50
2022-10-26T06:08:32.826Z,3.45
2022-10-26T06:09:04.783Z,3.83
2022-10-26T06:09:37.257Z,3.47
2022-10-26T06:10:12.037Z,3.92
2022-10-26T06:10:44.014Z,3.60
2022-10-26T06:11:16.163Z,3.08
2022-10-26T06:12:26.628Z,3.40
2022-10-26T06:12:58.655Z,3.30
2022-10-26T06:13:30.823Z,3.17
2022-10-26T06:14:03.816Z,3.72
2022-10-26T06:14:36.563Z,3.17
2022-10-26T06:15:13.287Z,3.15
2022-10-26T06:16:22.525Z,3.08
2022-10-26T06:17:23.412Z,3.20
2022-10-26T06:18:23.704Z,2.90
2022-10-26T06:19:20.597Z,2.67
2022-10-26T06:19:57.995Z,3.80
2022-10-26T06:20:35.737Z,2.80
2022-10-26T06:21:28.548Z,3.30
2022-10-26T06:22:18.986Z,3.38
2022-10-26T06:23:22.996Z,4.28
2022-10-26T06:24:18.029Z,4.70
2022-10-26T06:25:13.718Z,4.88
2022-10-26T06:25:58.191Z,3.78
2022-10-26T06:27:03.365Z,4.00
2022-10-26T06:28:23.280Z,4.22
2022-10-26T06:29:10.813Z,3.35
2022-10-26T06:29:56.452Z,4.07
2022-10-26T06:30:28.355Z,3.90
2022-10-26T06:31:00.184Z,3.55
2022-10-26T06:31:32.189Z,3.20
2022-10-26T06:32:04.079Z,3.45
2022-10-26T06:32:36.150Z,3.22
2022-10-26T06:33:18.301Z,3.08
2022-10-26T06:34:00.886Z,2.88
2022-10-26T06:34:36.077Z,2.90
2022-10-26T06:35:28.090Z,2.85
2022-10-26T06:36:22.567Z,3.35
2022-10-26T06:36:57.577Z,3.13
2022-10-26T06:37:30.729Z,2.78
2022-10-26T06:38:07.654Z,3.38
2022-10-26T06:38:44.908Z,2.85
2022-10-26T06:39:17.955Z,3.78
2022-10-26T06:39:53.917Z,3.08
2022-10-26T06:40:26.877Z,2.92
2022-10-26T06:40:59.909Z,3.17
2022-10-26T06:41:33.565Z,2.97
2022-10-26T06:42:06.467Z,2.63
2022-10-26T06:42:39.201Z,2.80
2022-10-26T06:43:34.138Z,2.65
2022-10-26T06:44:07.011Z,3.08
2022-10-26T06:44:39.470Z,2.75
2022-10-26T06:45:52.413Z,3.10
2022-10-26T06:46:39.282Z,2.45
2022-10-26T06:47:27.160Z,3.03
2022-10-26T06:48:16.668Z,2.78
2022-10-26T06:48:56.839Z,2.63
2022-10-26T06:49:37.035Z,2.83
2022-10-26T06:50:42.442Z,2.40
2022-10-26T06:51:16.800Z,2.78
2022-10-26T06:52:07.339Z,3.03
2022-10-26T06:52:48.572Z,2.75
2022-10-26T06:54:25.698Z,2.63
2022-10-26T06:54:57.767Z,2.65
2022-10-26T06:55:37.272Z,2.50
2022-10-26T06:56:11.612Z,2.80
2022-10-26T06:56:45.320Z,2.60
2022-10-26T06:57:19.551Z,2.35
2022-10-26T06:57:51.691Z,2.65
2022-10-26T06:58:31.265Z,2.80
2022-10-26T06:59:16.826Z,3.08
2022-10-26T06:59:55.909Z,2.83
2022-10-26T07:00:28.363Z,3.30
2022-10-26T07:01:00.997Z,2.40
2022-10-26T07:01:32.830Z,3.05
2022-10-26T07:02:06.593Z,2.83
2022-10-26T07:02:38.833Z,2.55
2022-10-26T07:03:10.639Z,2.72
2022-10-26T07:03:42.597Z,2.50
2022-10-26T07:04:14.393Z,3.17
2022-10-26T07:04:46.340Z,3.00
2022-10-26T07:05:18.300Z,2.70
2022-10-26T07:05:50.299Z,2.58
2022-10-26T07:07:24.350Z,2.75
2022-10-26T07:07:56.271Z,2.80
2022-10-26T07:08:28.077Z,2.30
2022-10-26T07:09:00.370Z,2.45
2022-10-26T07:09:32.267Z,2.42
2022-10-26T07:10:04.511Z,2.42
2022-10-26T07:10:38.937Z,2.55
2022-10-26T07:11:10.840Z,2.47
2022-10-26T07:11:42.686Z,2.30
2022-10-26T07:12:14.650Z,2.90
2022-10-26T07:12:46.718Z,2.35
2022-10-26T07:13:18.771Z,2.58
2022-10-26T07:13:51.847Z,2.30
2022-10-26T07:14:23.847Z,2.30
2022-10-26T07:14:55.969Z,2.67
2022-10-26T07:15:28.057Z,2.30
2022-10-26T07:15:59.911Z,2.00
2022-10-26T07:16:32.261Z,2.25
2022-10-26T07:17:05.365Z,2.83
2022-10-26T07:17:45.380Z,2.10
2022-10-26T07:18:17.578Z,2.10
2022-10-26T07:18:49.506Z,2.15
2022-10-26T07:19:21.597Z,2.13
2022-10-26T07:19:54.305Z,2.70
2022-10-26T07:20:26.391Z,2.30
2022-10-26T07:20:58.945Z,2.90
2022-10-26T07:21:30.960Z,2.13
2022-10-26T07:22:03.638Z,2.60
2022-10-26T07:22:35.563Z,2.13
2022-10-26T07:23:11.031Z,2.08
2022-10-26T07:23:42.921Z,2.22
2022-10-26T07:24:14.992Z,2.40
2022-10-26T07:24:50.595Z,2.38
2022-10-26T07:25:24.242Z,2.10
2022-10-26T07:25:56.185Z,2.40
2022-10-26T07:26:28.324Z,2.40
2022-10-26T07:27:00.401Z,2.63
2022-10-26T07:27:32.785Z,2.35
2022-10-26T07:28:05.114Z,2.58
2022-10-26T07:28:37.163Z,2.50
2022-10-26T07:29:09.107Z,2.20
2022-10-26T07:29:41.291Z,2.65
2022-10-26T07:30:14.218Z,2.55
2022-10-26T07:30:46.191Z,2.80
2022-10-26T07:31:18.567Z,2.33
2022-10-26T07:31:51.416Z,2.45
2022-10-26T07:32:23.594Z,2.13
2022-10-26T07:33:07.729Z,2.00
2022-10-26T07:33:41.555Z,2.10
2022-10-26T07:34:13.829Z,2.50
2022-10-26T07:34:45.851Z,2.63
2022-10-26T07:35:18.077Z,2.40
2022-10-26T07:35:49.842Z,2.10
2022-10-26T07:36:21.971Z,2.15
2022-10-26T07:36:53.776Z,2.20
2022-10-26T07:37:25.551Z,2.60
2022-10-26T07:37:59.028Z,2.40
2022-10-26T07:38:30.835Z,2.00
2022-10-26T07:39:06.537Z,2.33
2022-10-26T07:39:38.286Z,2.30
2022-10-26T07:40:10.390Z,2.47
2022-10-26T07:40:42.135Z,2.10
2022-10-26T07:41:14.384Z,2.20
2022-10-26T07:41:46.923Z,2.60
2022-10-26T07:42:18.982Z,2.60
2022-10-26T07:42:51.337Z,2.85
2022-10-26T07:43:23.598Z,2.13
2022-10-26T07:43:55.458Z,2.20
2022-10-26T07:44:27.571Z,2.22
2022-10-26T07:44:59.511Z,2.20
2022-10-26T07:45:39.048Z,2.65
2022-10-26T07:46:11.426Z,2.33
2022-10-26T07:46:43.198Z,2.97
2022-10-26T07:47:14.995Z,2.03
2022-10-26T07:47:46.784Z,2.67
2022-10-26T07:48:18.647Z,2.30
2022-10-26T07:48:50.438Z,2.25
2022-10-26T07:49:24.966Z,2.42
2022-10-26T07:49:59.497Z,2.40
2022-10-26T07:50:31.240Z,2.40
2022-10-26T07:51:03.388Z,2.33
2022-10-26T07:51:35.257Z,2.17
2022-10-26T07:52:07.347Z,2.33
2022-10-26T07:52:41.314Z,2.45
2022-10-26T07:53:13.223Z,2.60
2022-10-26T07:53:45.618Z,2.67
2022-10-26T07:54:17.471Z,2.92
2022-10-26T07:54:49.367Z,2.67
2022-10-26T07:55:21.120Z,2.67
2022-10-26T07:55:54.954Z,2.58
2022-10-26T07:56:27.017Z,2.58
2022-10-26T07:56:59.444Z,2.55
2022-10-26T07:57:31.354Z,2.75
2022-10-26T07:58:03.310Z,2.20
2022-10-26T07:58:36.264Z,2.20
2022-10-26T07:59:07.991Z,2.22
2022-10-26T07:59:39.804Z,2.22
2022-10-26T08:00:12.247Z,2.58
2022-10-26T08:00:44.106Z,2.40
2022-10-26T08:01:16.360Z,2.58
2022-10-26T08:01:48.316Z,2.30